Time;durP1;ratioP1;P1;durP2;ratioP2;P2;SDS_P1;SDS_P2;PMS_P1;PMS_P2;Temp;Humidity;BMP_temperature;BMP_pressure;BME280_temperature;BME280_humidity;BME280_pressure;Samples;Min_cycle;Max_cycle;Signal;HPM_P1;HPM_P2
2023/10/14 00:00:26;;;;;;;13.30;6.10;;;;;;;17.10;74.44;98532.27;234256;215;145781;-63
2023/10/14 00:05:49;;;;;;;11.70;5.70;;;;;;;17.09;74.27;98515.69;234174;215;141764;-63
2023/10/14 00:10:52;;;;;;;10.20;6.10;;;;;;;17.00;74.32;98510.66;234167;213;140521;-66
2023/10/14 00:15:56;;;;;;;9.50;5.70;;;;;;;16.92;74.33;98501.56;234196;215;146466;-63
2023/10/14 00:20:59;;;;;;;11.50;5.60;;;;;;;16.88;74.63;98493.60;234227;215;140071;-64
2023/10/14 00:26:03;;;;;;;14.40;6.20;;;;;;;16.90;74.69;98485.73;234158;215;138200;-63
2023/10/14 00:31:07;;;;;;;13.30;6.60;;;;;;;16.91;74.68;98488.41;234128;215;148121;-64
2023/10/14 00:36:14;;;;;;;13.50;6.70;;;;;;;16.88;74.66;98482.45;234164;215;140684;-64
2023/10/14 00:41:17;;;;;;;12.30;6.40;;;;;;;16.86;74.79;98476.71;234246;215;136862;-64
2023/10/14 00:46:24;;;;;;;8.30;5.70;;;;;;;16.81;74.87;98466.44;234198;215;146400;-65
2023/10/14 00:51:30;;;;;;;14.00;6.30;;;;;;;16.77;75.07;98459.68;234069;215;140775;-65
2023/10/14 00:56:40;;;;;;;11.40;6.00;;;;;;;16.76;75.07;98452.84;234180;215;140821;-65
2023/10/14 01:01:55;;;;;;;13.10;6.70;;;;;;;16.76;74.94;98444.02;234151;215;146623;-66
2023/10/14 01:07:03;;;;;;;13.80;6.50;;;;;;;16.72;74.86;98441.15;234196;215;138855;-63
2023/10/14 01:12:16;;;;;;;10.70;6.50;;;;;;;16.65;74.82;98437.17;234348;215;137413;-65
2023/10/14 01:17:29;;;;;;;9.20;5.70;;;;;;;16.56;74.93;98424.92;234318;215;145934;-66
2023/10/14 01:22:34;;;;;;;12.90;6.10;;;;;;;16.53;75.09;98405.39;234307;215;138820;-65
2023/10/14 01:27:38;;;;;;;13.00;6.10;;;;;;;16.54;74.86;98394.02;234411;215;137761;-67
2023/10/14 01:37:53;;;;;;;13.30;7.20;;;;;;;16.48;74.62;98379.32;234366;215;138703;-64
2023/10/14 01:42:58;;;;;;;10.70;6.50;;;;;;;16.41;74.68;98368.45;234360;215;137539;-63
2023/10/14 01:48:12;;;;;;;10.20;5.90;;;;;;;16.31;74.65;98366.11;234295;215;145809;-64
2023/10/14 01:53:27;;;;;;;10.00;5.80;;;;;;;16.21;74.69;98357.25;234322;208;138656;-62
2023/10/14 01:58:34;;;;;;;11.20;5.70;;;;;;;16.15;74.67;98347.83;234342;215;137421;-63
2023/10/14 02:03:43;;;;;;;10.50;6.10;;;;;;;16.13;74.73;98339.27;234339;215;147000;-63
2023/10/14 02:08:52;;;;;;;12.10;6.40;;;;;;;16.14;74.71;98334.91;234238;215;138937;-63
2023/10/14 02:13:55;;;;;;;10.00;5.60;;;;;;;16.11;74.54;98323.52;234440;215;138465;-63
2023/10/14 02:19:17;;;;;;;13.70;6.50;;;;;;;16.07;74.32;98315.86;234419;215;147996;-63
2023/10/14 02:24:22;;;;;;;13.70;6.40;;;;;;;15.97;74.07;98314.55;234386;215;140489;-63
2023/10/14 02:29:26;;;;;;;15.20;5.70;;;;;;;15.82;74.01;98306.20;234359;215;137919;-62
2023/10/14 02:34:30;;;;;;;10.60;5.80;;;;;;;15.76;73.98;98300.76;234336;215;145655;-62
2023/10/14 02:39:33;;;;;;;14.60;6.20;;;;;;;15.72;74.14;98296.98;234238;215;139341;-63
2023/10/14 02:44:51;;;;;;;13.20;6.50;;;;;;;15.69;74.05;98294.77;234308;215;138050;-64
2023/10/14 02:50:05;;;;;;;14.10;6.80;;;;;;;15.61;74.05;98290.90;234334;215;145544;-64
2023/10/14 02:55:21;;;;;;;14.20;6.40;;;;;;;15.54;74.31;98293.33;234237;215;139506;-63
2023/10/14 03:00:32;;;;;;;13.20;6.80;;;;;;;15.47;74.41;98283.05;234239;215;137191;-65
2023/10/14 03:05:41;;;;;;;12.50;5.70;;;;;;;15.37;74.50;98276.13;234354;215;148460;-65
2023/10/14 03:11:15;;;;;;;12.00;5.50;;;;;;;15.35;74.85;98278.11;234243;215;138795;-64
2023/10/14 03:16:17;;;;;;;10.10;6.60;;;;;;;15.37;74.89;98271.98;234318;215;138858;-64
2023/10/14 03:21:23;;;;;;;11.40;5.80;;;;;;;15.37;75.00;98259.55;234237;215;148326;-63
2023/10/14 03:26:32;;;;;;;13.00;5.60;;;;;;;15.39;75.10;98252.00;234335;215;141496;-62
2023/10/14 03:31:35;;;;;;;15.50;5.90;;;;;;;15.35;75.11;98242.90;234311;213;138011;-63
2023/10/14 03:36:42;;;;;;;11.90;5.90;;;;;;;15.33;75.09;98236.06;234295;215;145678;-63
2023/10/14 03:41:51;;;;;;;10.90;5.80;;;;;;;15.33;75.04;98229.47;234286;215;140126;-63
2023/10/14 03:47:00;;;;;;;11.40;6.10;;;;;;;15.34;74.87;98223.15;234350;215;137240;-62
2023/10/14 03:52:03;;;;;;;12.10;6.00;;;;;;;15.28;74.91;98219.09;234335;215;147173;-64
2023/10/14 03:57:14;;;;;;;14.80;6.30;;;;;;;15.21;74.99;98212.23;234311;215;139418;-63
2023/10/14 04:02:24;;;;;;;12.70;6.00;;;;;;;15.13;75.10;98213.70;234399;215;137009;-62
2023/10/14 04:07:31;;;;;;;11.60;6.10;;;;;;;15.11;75.19;98211.19;234363;215;147226;-63
2023/10/14 04:12:39;;;;;;;12.90;5.90;;;;;;;15.10;75.00;98210.45;234294;215;268210;-64
2023/10/14 04:17:48;;;;;;;15.50;6.60;;;;;;;15.11;74.89;98203.02;234403;215;138659;-67
2023/10/14 04:22:53;;;;;;;10.80;5.90;;;;;;;15.06;74.78;98197.02;234444;215;148062;-64
2023/10/14 04:28:18;;;;;;;;;;;;;;;15.01;74.85;98202.02;234331;215;138971;-63
2023/10/14 04:33:35;;;;;;;9.00;6.30;;;;;;;14.94;74.96;98200.72;234292;215;131271;-65
2023/10/14 04:38:38;;;;;;;13.00;6.30;;;;;;;14.90;74.93;98200.89;234278;215;147728;-65
2023/10/14 04:48:51;;;;;;;12.20;5.80;;;;;;;14.72;75.06;98202.34;234316;215;137976;-63
2023/10/14 04:54:00;;;;;;;137.50;117.20;;;;;;;14.73;75.59;98192.41;234301;214;149026;-64
2023/10/14 04:59:05;;;;;;;31.10;23.30;;;;;;;14.84;75.49;98188.17;234327;215;139056;-63
2023/10/14 05:04:08;;;;;;;;;;;;;;;14.85;75.25;98185.45;234250;215;138262;-65
2023/10/14 05:09:27;;;;;;;24.00;15.70;;;;;;;14.82;75.13;98191.73;234233;215;148537;-65
2023/10/14 05:14:36;;;;;;;12.30;5.30;;;;;;;14.70;75.26;98199.33;234269;215;138760;-65
2023/10/14 05:19:44;;;;;;;16.40;6.30;;;;;;;14.70;75.50;98207.36;234298;215;138571;-66
2023/10/14 05:24:48;;;;;;;15.40;6.30;;;;;;;14.78;75.41;98204.32;234218;215;148798;-65
2023/10/14 05:29:53;;;;;;;162.10;103.10;;;;;;;14.87;75.52;98205.38;234301;215;141306;-63
2023/10/14 05:34:59;;;;;;;18.50;7.40;;;;;;;14.91;75.06;98203.09;234252;215;137574;-63
2023/10/14 05:40:04;;;;;;;124.00;80.00;;;;;;;14.93;74.82;98203.59;234273;215;147287;-66
2023/10/14 05:45:11;;;;;;;155.60;107.00;;;;;;;14.92;74.50;98206.95;234311;215;138787;-66
2023/10/14 05:50:14;;;;;;;20.00;8.50;;;;;;;14.83;74.85;98201.75;234271;215;138136;-66
2023/10/14 05:55:21;;;;;;;13.50;6.90;;;;;;;14.82;74.96;98198.73;234259;215;147930;-67
2023/10/14 06:00:25;;;;;;;16.50;7.20;;;;;;;14.80;75.23;98205.88;234211;215;139144;-66
2023/10/14 06:05:32;;;;;;;14.40;7.90;;;;;;;14.86;75.67;98208.54;234230;215;138051;-66
2023/10/14 06:10:41;;;;;;;15.80;6.30;;;;;;;14.94;76.03;98207.98;234290;214;147503;-66
2023/10/14 06:15:45;;;;;;;16.70;6.50;;;;;;;15.04;76.24;98223.18;234200;215;139367;-65
2023/10/14 06:20:49;;;;;;;115.00;89.20;;;;;;;15.11;76.49;98227.30;234325;215;137570;-64
2023/10/14 06:25:54;;;;;;;16.80;6.90;;;;;;;15.25;76.70;98227.96;234351;215;147555;-65
2023/10/14 06:31:00;;;;;;;15.60;6.60;;;;;;;15.40;76.61;98226.31;234280;215;139921;-65
2023/10/14 06:36:04;;;;;;;17.10;6.80;;;;;;;15.60;76.47;98231.23;234290;215;138268;-65
2023/10/14 06:41:11;;;;;;;13.70;5.10;;;;;;;15.85;74.32;98227.80;234284;215;147585;-62
2023/10/14 06:46:16;;;;;;;9.70;5.10;;;;;;;16.24;73.91;98211.47;234316;215;140434;-64
2023/10/14 06:51:19;;;;;;;14.80;5.80;;;;;;;16.56;70.81;98218.27;234186;215;137478;-64
2023/10/14 06:56:27;;;;;;;11.00;4.70;;;;;;;16.92;68.88;98230.52;234270;215;147580;-63
2023/10/14 07:01:30;;;;;;;10.70;4.10;;;;;;;17.26;67.16;98233.51;234321;215;139468;-65
2023/10/14 07:06:33;;;;;;;13.70;4.60;;;;;;;17.53;65.39;98222.38;234415;215;137072;-63
2023/10/14 07:11:37;;;;;;;10.60;4.20;;;;;;;17.79;64.27;98207.16;234296;215;148097;-63
2023/10/14 07:16:42;;;;;;;8.30;4.00;;;;;;;18.04;63.36;98223.88;234218;214;141592;-63
2023/10/14 07:21:46;;;;;;;12.90;7.70;;;;;;;18.29;62.39;98232.00;234313;215;136718;-62
2023/10/14 07:26:49;;;;;;;10.30;5.00;;;;;;;18.52;62.10;98216.76;234384;215;148210;-62
2023/10/14 07:31:52;;;;;;;12.30;5.00;;;;;;;18.74;60.95;98204.58;234268;215;138601;-62
2023/10/14 07:36:56;;;;;;;11.20;5.20;;;;;;;18.98;59.89;98211.27;234259;215;137330;-63
2023/10/14 07:41:59;;;;;;;10.60;4.90;;;;;;;19.25;58.94;98221.81;234436;215;147655;-63
2023/10/14 07:47:05;;;;;;;15.00;5.30;;;;;;;19.48;58.89;98220.25;234289;215;139659;-66
2023/10/14 07:52:14;;;;;;;8.60;4.80;;;;;;;19.68;58.48;98209.77;234406;215;137617;-64
2023/10/14 07:57:18;;;;;;;48.80;32.30;;;;;;;19.89;57.08;98212.14;234232;215;148601;-66
2023/10/14 08:02:22;;;;;;;15.40;7.80;;;;;;;20.09;56.62;98206.58;234282;215;138847;-63
2023/10/14 08:07:27;;;;;;;11.40;5.20;;;;;;;20.27;56.39;98201.79;234342;215;138521;-63
2023/10/14 08:12:31;;;;;;;14.50;5.60;;;;;;;20.44;56.38;98195.89;234262;215;147670;-63
2023/10/14 08:17:34;;;;;;;11.30;5.20;;;;;;;20.61;55.92;98196.75;234270;208;138299;-64
2023/10/14 08:22:45;;;;;;;10.60;5.20;;;;;;;20.77;55.74;98190.25;234190;215;137432;-63
2023/10/14 08:27:50;;;;;;;15.80;5.50;;;;;;;20.93;55.85;98187.27;234271;215;147543;-61
2023/10/14 08:32:53;;;;;;;9.50;4.80;;;;;;;21.09;55.89;98178.34;234280;213;138775;-62
2023/10/14 08:37:57;;;;;;;18.80;8.20;;;;;;;21.23;54.76;98168.83;234299;215;136947;-59
2023/10/14 08:43:08;;;;;;;12.90;6.10;;;;;;;21.41;53.66;98180.83;234307;215;149056;-65
2023/10/14 08:48:11;;;;;;;13.40;5.30;;;;;;;21.59;52.30;98188.77;234282;215;139013;-65
2023/10/14 08:53:16;;;;;;;10.40;5.40;;;;;;;21.76;51.21;98187.00;234250;215;137652;-65
2023/10/14 08:58:22;;;;;;;;;;;;;;;21.92;49.87;98192.86;234322;215;148157;-63
2023/10/14 09:03:26;;;;;;;71.40;57.80;;;;;;;22.08;49.29;98193.18;234284;214;141357;-60
2023/10/14 09:08:34;;;;;;;11.60;5.90;;;;;;;22.27;48.57;98197.61;234264;215;138221;-64
2023/10/14 09:13:37;;;;;;;12.80;5.40;;;;;;;22.46;47.38;98196.30;234152;215;148353;-63
2023/10/14 09:18:57;;;;;;;8.70;5.30;;;;;;;22.56;47.38;98190.05;234274;215;139021;-62
2023/10/14 09:24:07;;;;;;;12.40;5.60;;;;;;;22.68;47.27;98197.02;234179;215;137913;-59
2023/10/14 09:29:11;;;;;;;11.00;5.60;;;;;;;22.78;46.85;98193.66;234220;215;148114;-62
2023/10/14 09:34:22;;;;;;;15.10;9.40;;;;;;;22.88;47.25;98186.78;234363;215;139674;-65
2023/10/14 09:39:28;;;;;;;10.20;5.80;;;;;;;22.99;46.88;98178.05;234328;215;137017;-64
2023/10/14 09:44:32;;;;;;;44.40;38.30;;;;;;;23.08;46.54;98179.40;234286;215;148645;-64
2023/10/14 09:49:37;;;;;;;11.20;5.40;;;;;;;23.20;45.80;98175.02;234162;215;140352;-65
2023/10/14 09:54:42;;;;;;;9.60;5.70;;;;;;;23.30;45.65;98173.46;234296;215;139009;-60
2023/10/14 09:59:47;;;;;;;9.30;5.00;;;;;;;23.43;45.19;98170.45;234268;215;147598;-67
2023/10/14 10:04:52;;;;;;;50.80;42.20;;;;;;;23.56;45.37;98160.48;234246;215;139704;-62
2023/10/14 10:10:10;;;;;;;9.40;5.90;;;;;;;23.71;45.10;98157.79;234189;214;137761;-63
2023/10/14 10:15:19;;;;;;;13.20;5.40;;;;;;;23.86;44.59;98146.16;234248;215;147901;-63
2023/10/14 10:20:30;;;;;;;10.50;5.10;;;;;;;24.04;44.51;98140.17;234217;215;138555;-62
2023/10/14 10:25:36;;;;;;;8.30;5.60;;;;;;;24.19;44.14;98139.94;234242;215;137394;-62
2023/10/14 10:30:46;;;;;;;16.30;9.60;;;;;;;24.32;43.45;98141.36;234356;215;147957;-63
2023/10/14 10:36:03;;;;;;;11.30;5.60;;;;;;;24.45;43.30;98131.21;234297;215;138856;-65
2023/10/14 10:41:26;;;;;;;11.90;5.60;;;;;;;24.53;42.38;98136.29;234225;215;138718;-69
2023/10/14 10:46:38;;;;;;;10.10;4.80;;;;;;;24.57;42.21;98132.91;234245;215;149670;-65
2023/10/14 10:51:47;;;;;;;8.80;4.70;;;;;;;24.62;42.40;98129.23;234253;215;139474;-66
2023/10/14 10:56:50;;;;;;;9.20;5.20;;;;;;;24.67;42.51;98124.67;234285;214;137367;-61
2023/10/14 11:02:15;;;;;;;10.00;5.20;;;;;;;24.76;42.80;98116.93;234394;215;147194;-62
2023/10/14 11:07:22;;;;;;;13.50;6.90;;;;;;;24.87;43.07;98111.02;234326;215;140417;-62
2023/10/14 11:12:26;;;;;;;9.80;5.20;;;;;;;24.97;42.74;98102.44;234418;215;137938;-61
2023/10/14 11:17:29;;;;;;;11.90;5.30;;;;;;;25.07;42.86;98097.45;234210;215;148286;-63
2023/10/14 11:22:33;;;;;;;12.10;5.10;;;;;;;25.15;42.10;98096.05;234280;214;138899;-63
2023/10/14 11:27:36;;;;;;;12.10;5.50;;;;;;;25.21;41.79;98101.70;234331;215;138062;-62
2023/10/14 11:32:51;;;;;;;12.60;5.50;;;;;;;25.36;41.85;98094.54;234278;215;149082;-63
2023/10/14 11:38:01;;;;;;;15.50;6.40;;;;;;;25.53;41.47;98088.66;233936;215;138913;-61
2023/10/14 11:43:11;;;;;;;11.70;6.60;;;;;;;25.75;41.36;98092.59;234132;215;137677;-60
2023/10/14 11:48:25;;;;;;;8.90;5.30;;;;;;;25.91;41.08;98091.70;234236;215;147348;-61
2023/10/14 11:53:32;;;;;;;10.00;5.40;;;;;;;26.03;40.45;98090.80;234207;215;138948;-60
2023/10/14 11:58:35;;;;;;;15.10;5.80;;;;;;;25.99;40.24;98080.09;234167;215;137137;-61
2023/10/14 12:03:39;;;;;;;10.70;5.00;;;;;;;25.80;40.40;98074.55;234178;215;148201;-62
2023/10/14 12:08:45;;;;;;;28.30;18.30;;;;;;;25.57;40.94;98067.40;234084;215;138781;-61
2023/10/14 12:13:48;;;;;;;12.30;6.70;;;;;;;25.43;41.19;98072.52;234154;215;137264;-60
2023/10/14 12:18:58;;;;;;;;;;;;;;;25.29;41.50;98075.95;234204;215;151130;-61
2023/10/14 12:24:04;;;;;;;;;;;;;;;25.16;42.11;98076.31;234230;215;139936;-62
2023/10/14 12:29:10;;;;;;;;;;;;;;;25.05;42.92;98076.48;234281;215;132424;-61
2023/10/14 12:34:14;;;;;;;;;;;;;;;24.95;43.25;98068.02;234233;215;148318;-60
2023/10/14 12:39:26;;;;;;;;;;;;;;;24.84;43.25;98069.20;234225;215;139439;-61
2023/10/14 12:44:29;;;;;;;;;;;;;;;24.75;43.64;98064.43;234169;215;131473;-63
2023/10/14 12:49:36;;;;;;;;;;;;;;;24.73;43.94;98063.85;234152;215;147380;-71
2023/10/14 12:54:39;;;;;;;;;;;;;;;24.81;44.43;98066.02;234238;213;138865;-60
2023/10/14 12:59:42;;;;;;;;;;;;;;;24.82;43.83;98068.16;234249;215;131406;-60
2023/10/14 13:04:46;;;;;;;;;;;;;;;24.77;43.94;98063.46;234230;215;147463;-61
2023/10/14 13:09:49;;;;;;;;;;;;;;;24.70;44.16;98061.29;234344;216;138852;-60
2023/10/14 13:14:52;;;;;;;;;;;;;;;24.62;44.36;98062.70;234332;216;131451;-60
2023/10/14 13:19:55;;;;;;;;;;;;;;;24.56;44.82;98060.33;233550;216;148520;-63
2023/10/14 13:24:58;;;;;;;;;;;;;;;24.47;45.07;98063.92;234307;216;141368;-62
2023/10/14 13:30:08;;;;;;;;;;;;;;;24.39;45.59;98056.44;234236;208;131503;-63
2023/10/14 13:35:15;;;;;;;;;;;;;;;24.29;45.76;98070.06;234268;215;148321;-64
2023/10/14 13:40:22;;;;;;;;;;;;;;;24.23;46.29;98079.08;234203;215;139289;-62
2023/10/14 13:45:44;;;;;;;;;;;;;;;24.21;46.55;98077.31;234344;216;131406;-63
2023/10/14 13:50:47;;;;;;;;;;;;;;;24.23;46.73;98081.22;234299;216;148233;-62
2023/10/14 13:55:54;;;;;;;;;;;;;;;24.20;46.93;98084.76;234265;216;139724;-61
2023/10/14 14:01:00;;;;;;;;;;;;;;;24.11;47.22;98079.93;234361;216;131519;-62
2023/10/14 14:06:05;;;;;;;;;;;;;;;24.05;47.25;98075.98;234343;215;147891;-62
2023/10/14 14:11:08;;;;;;;;;;;;;;;24.00;47.36;98081.10;234280;216;140455;-64
2023/10/14 14:16:11;;;;;;;;;;;;;;;23.92;47.32;98081.96;234223;215;132873;-63
2023/10/14 14:21:18;;;;;;;;;;;;;;;23.86;47.51;98079.69;234488;215;148684;-63
2023/10/14 14:26:21;;;;;;;;;;;;;;;23.81;47.70;98078.38;234467;216;139633;-64
2023/10/14 14:31:27;;;;;;;;;;;;;;;23.75;47.53;98075.98;234476;215;131386;-64
2023/10/14 14:36:30;;;;;;;;;;;;;;;23.70;47.44;98067.55;234482;215;148299;-64
2023/10/14 14:41:36;;;;;;;;;;;;;;;23.64;47.52;98068.92;234465;215;138771;-64
2023/10/14 14:46:39;;;;;;;;;;;;;;;23.60;47.73;98066.77;234592;215;131285;-63
2023/10/14 14:51:42;;;;;;;;;;;;;;;23.56;47.93;98060.69;234479;216;147484;-64
2023/10/14 14:56:46;;;;;;;;;;;;;;;23.54;48.12;98072.63;234480;214;139009;-64
2023/10/14 15:01:49;;;;;;;;;;;;;;;23.50;48.38;98081.84;234472;215;133840;-63
2023/10/14 15:06:55;;;;;;;;;;;;;;;23.46;48.65;98089.05;234434;215;147444;-64
2023/10/14 15:11:58;;;;;;;;;;;;;;;23.44;49.06;98102.24;234425;215;138917;-65
2023/10/14 15:17:03;;;;;;;;;;;;;;;23.37;49.39;98109.98;234307;214;136955;-64
2023/10/14 15:22:06;;;;;;;;;;;;;;;23.25;49.36;98106.80;234259;215;147811;-65
2023/10/14 15:27:09;;;;;;;;;;;;;;;23.18;49.50;98106.88;234192;215;140489;-62
2023/10/14 15:32:12;;;;;;;;;;;;;;;23.07;49.52;98112.99;234228;215;132671;-63
2023/10/14 15:37:16;;;;;;;;;;;;;;;22.96;49.75;98119.46;234213;215;148662;-62
2023/10/14 15:42:20;;;;;;;;;;;;;;;22.88;49.72;98122.45;234166;215;141490;-64
2023/10/14 15:47:24;;;;;;;;;;;;;;;22.81;49.94;98119.02;234302;215;131507;-63
2023/10/14 15:52:27;;;;;;;;;;;;;;;22.73;49.95;98129.55;234280;215;147290;-62
2023/10/14 15:57:30;;;;;;;;;;;;;;;22.63;50.12;98130.95;234202;215;139970;-62
2023/10/14 16:02:35;;;;;;;;;;;;;;;22.59;50.31;98132.26;234186;215;132173;-61
2023/10/14 16:07:38;;;;;;;;;;;;;;;22.56;50.42;98140.36;233980;215;147661;-64
2023/10/14 16:15:29;;;;;;;10.00;5.70;;;;;;;22.51;50.57;98138.06;233015;222;709849;-71
2023/10/14 16:20:32;;;;;;;12.10;5.60;;;;;;;22.41;50.62;98140.80;233888;219;136872;-66
2023/10/14 16:25:36;;;;;;;10.20;5.70;;;;;;;22.34;50.61;98149.11;233797;219;144749;-69
2023/10/14 16:30:42;;;;;;;9.90;5.50;;;;;;;22.32;50.64;98153.80;233760;219;138713;-67
2023/10/14 16:35:45;;;;;;;34.70;29.50;;;;;;;22.29;50.75;98154.35;234450;216;136997;-67
2023/10/14 16:40:50;;;;;;;12.50;6.30;;;;;;;22.27;50.77;98154.06;234377;216;143995;-68
2023/10/14 16:45:55;;;;;;;10.60;5.50;;;;;;;22.20;50.76;98160.34;234370;217;139088;-75
2023/10/14 16:51:04;;;;;;;8.90;5.50;;;;;;;22.12;50.90;98161.38;234431;217;136853;-66
2023/10/14 16:56:17;;;;;;;10.00;5.50;;;;;;;22.06;50.93;98169.30;234439;216;143805;-72
2023/10/14 17:01:20;;;;;;;9.50;5.00;;;;;;;22.00;51.20;98172.86;234356;214;138851;-70
2023/10/14 17:06:23;;;;;;;9.70;5.30;;;;;;;21.97;51.31;98177.20;234485;215;137157;-65
2023/10/14 17:11:28;;;;;;;10.50;5.20;;;;;;;21.94;51.51;98187.50;234367;216;146353;-70
2023/10/14 19:25:28;;;;;;;5.60;1.80;;;;;;;17.47;53.45;98432.92;233028;224;697061;-65
2023/10/14 19:30:34;;;;;;;3.10;1.50;;;;;;;17.27;54.16;98449.97;234372;214;139601;-72
2023/10/14 19:35:40;;;;;;;4.50;2.00;;;;;;;17.14;54.69;98478.16;234414;214;144815;-69
2023/10/14 19:40:44;;;;;;;4.60;1.70;;;;;;;17.03;55.01;98504.05;234327;216;138791;-73
2023/10/14 19:45:47;;;;;;;3.00;1.50;;;;;;;16.92;55.22;98509.96;234726;213;136561;-73
2023/10/14 19:50:53;;;;;;;4.80;1.70;;;;;;;16.84;55.08;98512.57;234832;215;144303;-73
2023/10/14 19:55:56;;;;;;;3.90;1.80;;;;;;;16.72;55.39;98533.21;234783;212;139880;-73
2023/10/14 20:01:11;;;;;;;5.30;1.90;;;;;;;16.64;55.71;98550.31;234899;215;136330;-68
2023/10/14 20:06:19;;;;;;;8.00;2.40;;;;;;;16.56;56.38;98544.62;234953;214;143866;-77
2023/10/14 20:11:22;;;;;;;4.80;1.80;;;;;;;16.49;56.91;98542.77;234733;215;139504;-68
2023/10/14 20:16:25;;;;;;;4.00;1.70;;;;;;;16.42;57.34;98542.20;234928;214;136282;-75
2023/10/14 20:21:29;;;;;;;6.00;2.00;;;;;;;16.36;57.69;98538.41;234956;214;145577;-76
2023/10/14 20:26:33;;;;;;;6.30;2.40;;;;;;;16.30;58.06;98546.48;234894;215;138248;-69
2023/10/14 20:31:37;;;;;;;4.70;1.80;;;;;;;16.26;58.49;98544.54;234906;215;138192;-74
2023/10/14 20:36:40;;;;;;;6.80;2.30;;;;;;;16.18;58.79;98540.61;234623;214;146297;-70
2023/10/14 20:41:44;;;;;;;6.20;2.10;;;;;;;16.11;59.79;98551.33;234653;214;138670;-68
2023/10/14 20:46:47;;;;;;;8.20;2.50;;;;;;;16.04;60.63;98551.28;234629;215;137036;-67
2023/10/14 20:51:52;;;;;;;5.30;2.10;;;;;;;15.94;61.44;98530.48;234633;215;145744;-74
2023/10/14 20:56:55;;;;;;;5.80;2.50;;;;;;;15.83;62.33;98497.16;234661;215;139468;-68
2023/10/14 21:01:58;;;;;;;7.90;2.80;;;;;;;15.73;63.36;98450.33;234631;215;137316;-69
2023/10/14 21:07:01;;;;;;;8.70;2.60;;;;;;;15.57;64.67;98468.39;234612;215;146271;-74
2023/10/14 21:12:05;;;;;;;8.60;3.20;;;;;;;15.45;65.41;98500.44;234630;214;138604;-69
2023/10/14 21:17:11;;;;;;;7.20;2.50;;;;;;;15.38;66.20;98517.70;234657;215;138127;-66
2023/10/14 21:22:14;;;;;;;6.20;2.80;;;;;;;15.32;66.69;98550.63;234663;215;147949;-69
2023/10/14 21:27:18;;;;;;;7.70;2.80;;;;;;;15.33;66.99;98571.23;234583;215;138996;-75
2023/10/14 21:32:22;;;;;;;6.70;2.80;;;;;;;15.39;67.10;98579.66;234621;215;137833;-76
2023/10/14 21:37:25;;;;;;;5.20;2.60;;;;;;;15.37;67.35;98633.96;234628;214;146343;-74
2023/10/14 21:42:29;;;;;;;6.30;3.00;;;;;;;15.34;67.70;98636.42;234590;214;139490;-63
2023/10/14 21:47:34;;;;;;;7.10;2.90;;;;;;;15.25;67.88;98638.63;234679;214;137522;-72
2023/10/14 21:52:38;;;;;;;5.70;2.60;;;;;;;15.18;68.31;98637.13;234591;214;145826;-68
2023/10/14 21:57:42;;;;;;;4.70;2.80;;;;;;;15.11;68.49;98607.72;234658;214;138966;-71
2023/10/14 22:02:47;;;;;;;5.50;2.60;;;;;;;15.05;69.04;98606.99;234626;215;138554;-70
2023/10/14 22:07:51;;;;;;;6.40;2.90;;;;;;;15.02;69.58;98612.20;234573;215;147464;-64
2023/10/14 22:12:55;;;;;;;8.40;3.00;;;;;;;15.04;69.75;98609.61;234660;214;139609;-65
2023/10/14 22:17:59;;;;;;;5.50;2.90;;;;;;;15.06;70.06;98595.05;234558;215;138864;-65
2023/10/14 22:23:06;;;;;;;6.40;3.80;;;;;;;15.03;70.22;98587.90;234593;215;148340;-64
2023/10/14 22:28:11;;;;;;;10.20;3.10;;;;;;;14.94;70.27;98585.95;234598;215;139426;-66
2023/10/14 22:33:15;;;;;;;5.50;3.20;;;;;;;14.90;70.71;98613.96;234580;214;137389;-62
2023/10/14 22:38:18;;;;;;;8.40;3.30;;;;;;;14.87;70.94;98631.02;234727;214;146928;-66
2023/10/14 22:43:21;;;;;;;7.60;2.90;;;;;;;14.87;71.01;98621.55;234747;214;138906;-66
2023/10/14 22:48:26;;;;;;;5.90;2.70;;;;;;;14.92;71.01;98609.89;234599;215;137148;-67
2023/10/14 22:53:30;;;;;;;6.40;3.00;;;;;;;14.96;70.98;98607.98;234576;215;145675;-67
2023/10/14 22:58:33;;;;;;;6.10;2.70;;;;;;;14.96;70.97;98608.52;234536;215;139808;-66
2023/10/14 23:03:36;;;;;;;6.50;2.80;;;;;;;14.88;70.91;98601.99;234594;215;136619;-67
2023/10/14 23:08:40;;;;;;;5.70;2.60;;;;;;;14.83;70.99;98607.95;234750;214;146308;-66
2023/10/14 23:13:43;;;;;;;8.00;2.70;;;;;;;14.82;71.14;98613.75;234551;215;138929;-65
2023/10/14 23:18:46;;;;;;;7.30;2.70;;;;;;;14.76;71.27;98622.48;234639;214;136930;-64
2023/10/14 23:23:51;;;;;;;4.70;2.90;;;;;;;14.75;71.46;98624.27;234668;215;147582;-64
2023/10/14 23:28:54;;;;;;;8.50;3.00;;;;;;;14.77;71.59;98619.41;234667;215;140823;-64
2023/10/14 23:33:57;;;;;;;10.00;3.60;;;;;;;14.82;71.51;98624.13;234673;215;138125;-65
2023/10/14 23:39:00;;;;;;;7.30;2.90;;;;;;;14.85;71.45;98633.89;234651;214;149727;-65
2023/10/14 23:44:04;;;;;;;7.40;3.20;;;;;;;14.86;71.37;98647.36;234635;215;142323;-64
2023/10/14 23:49:08;;;;;;;9.20;3.00;;;;;;;14.80;71.45;98655.90;234753;215;137997;-65
2023/10/14 23:54:12;;;;;;;6.70;3.00;;;;;;;14.74;71.62;98654.16;234705;215;146739;-64
2023/10/14 23:59:15;;;;;;;7.90;3.40;;;;;;;14.64;72.06;98643.88;234625;215;138672;-62
